sensor_id;sensor_type;location;lat;lon;timestamp;P1;durP1;ratioP1;P2;durP2;ratioP2
32032;SDS011;31720;52.638;9.216;2023-04-24T00:02:39;1.13;;;0.82;;
32032;SDS011;31720;52.638;9.216;2023-04-24T00:05:40;1.83;;;1.00;;
32032;SDS011;31720;52.638;9.216;2023-04-24T00:08:42;0.98;;;0.80;;
32032;SDS011;31720;52.638;9.216;2023-04-24T00:11:45;4.88;;;1.20;;
32032;SDS011;31720;52.638;9.216;2023-04-24T00:14:46;0.80;;;0.70;;
32032;SDS011;31720;52.638;9.216;2023-04-24T00:17:48;0.77;;;0.75;;
32032;SDS011;31720;52.638;9.216;2023-04-24T00:20:49;0.70;;;0.70;;
32032;SDS011;31720;52.638;9.216;2023-04-24T00:23:50;2.03;;;0.77;;
32032;SDS011;31720;52.638;9.216;2023-04-24T00:26:53;3.28;;;0.80;;
32032;SDS011;31720;52.638;9.216;2023-04-24T00:29:55;0.40;;;0.40;;
32032;SDS011;31720;52.638;9.216;2023-04-24T00:32:56;0.90;;;0.82;;
32032;SDS011;31720;52.638;9.216;2023-04-24T00:35:58;0.47;;;0.45;;
32032;SDS011;31720;52.638;9.216;2023-04-24T00:38:59;0.95;;;0.50;;
32032;SDS011;31720;52.638;9.216;2023-04-24T00:42:02;2.95;;;0.60;;
32032;SDS011;31720;52.638;9.216;2023-04-24T00:45:06;0.57;;;0.50;;
32032;SDS011;31720;52.638;9.216;2023-04-24T00:48:08;0.75;;;0.52;;
32032;SDS011;31720;52.638;9.216;2023-04-24T00:51:10;0.47;;;0.47;;
32032;SDS011;31720;52.638;9.216;2023-04-24T00:54:11;0.57;;;0.50;;
32032;SDS011;31720;52.638;9.216;2023-04-24T00:57:14;4.57;;;0.50;;
32032;SDS011;31720;52.638;9.216;2023-04-24T01:00:15;0.50;;;0.50;;
32032;SDS011;31720;52.638;9.216;2023-04-24T01:03:17;1.15;;;0.70;;
32032;SDS011;31720;52.638;9.216;2023-04-24T01:06:19;0.43;;;0.43;;
32032;SDS011;31720;52.638;9.216;2023-04-24T01:09:21;0.98;;;0.63;;
32032;SDS011;31720;52.638;9.216;2023-04-24T01:12:25;0.68;;;0.60;;
32032;SDS011;31720;52.638;9.216;2023-04-24T01:15:27;0.60;;;0.60;;
32032;SDS011;31720;52.638;9.216;2023-04-24T01:18:28;1.17;;;0.80;;
32032;SDS011;31720;52.638;9.216;2023-04-24T01:21:29;0.60;;;0.60;;
32032;SDS011;31720;52.638;9.216;2023-04-24T01:24:34;0.32;;;0.32;;
32032;SDS011;31720;52.638;9.216;2023-04-24T01:27:36;0.63;;;0.40;;
32032;SDS011;31720;52.638;9.216;2023-04-24T01:30:37;0.73;;;0.40;;
32032;SDS011;31720;52.638;9.216;2023-04-24T01:33:39;0.47;;;0.47;;
32032;SDS011;31720;52.638;9.216;2023-04-24T01:36:42;0.40;;;0.40;;
32032;SDS011;31720;52.638;9.216;2023-04-24T01:39:47;0.47;;;0.47;;
32032;SDS011;31720;52.638;9.216;2023-04-24T01:42:49;0.40;;;0.40;;
32032;SDS011;31720;52.638;9.216;2023-04-24T01:45:51;0.38;;;0.38;;
32032;SDS011;31720;52.638;9.216;2023-04-24T01:48:52;0.43;;;0.40;;
32032;SDS011;31720;52.638;9.216;2023-04-24T01:51:54;0.40;;;0.40;;
32032;SDS011;31720;52.638;9.216;2023-04-24T01:54:57;0.73;;;0.38;;
32032;SDS011;31720;52.638;9.216;2023-04-24T01:58:00;1.05;;;0.70;;
32032;SDS011;31720;52.638;9.216;2023-04-24T02:01:02;1.60;;;0.70;;
32032;SDS011;31720;52.638;9.216;2023-04-24T02:04:04;1.10;;;0.55;;
32032;SDS011;31720;52.638;9.216;2023-04-24T02:07:06;0.40;;;0.40;;
32032;SDS011;31720;52.638;9.216;2023-04-24T02:10:09;0.50;;;0.50;;
32032;SDS011;31720;52.638;9.216;2023-04-24T02:13:11;0.98;;;0.60;;
32032;SDS011;31720;52.638;9.216;2023-04-24T02:16:12;0.50;;;0.50;;
32032;SDS011;31720;52.638;9.216;2023-04-24T02:19:14;1.58;;;0.40;;
32032;SDS011;31720;52.638;9.216;2023-04-24T02:22:15;0.40;;;0.40;;
32032;SDS011;31720;52.638;9.216;2023-04-24T02:25:18;0.40;;;0.40;;
32032;SDS011;31720;52.638;9.216;2023-04-24T02:28:19;1.17;;;0.60;;
32032;SDS011;31720;52.638;9.216;2023-04-24T02:31:21;0.90;;;0.40;;
32032;SDS011;31720;52.638;9.216;2023-04-24T02:34:22;0.50;;;0.40;;
32032;SDS011;31720;52.638;9.216;2023-04-24T02:37:24;0.30;;;0.30;;
32032;SDS011;31720;52.638;9.216;2023-04-24T02:40:26;0.30;;;0.30;;
32032;SDS011;31720;52.638;9.216;2023-04-24T02:43:28;0.80;;;0.50;;
32032;SDS011;31720;52.638;9.216;2023-04-24T02:46:29;1.08;;;0.45;;
32032;SDS011;31720;52.638;9.216;2023-04-24T02:49:31;0.30;;;0.30;;
32032;SDS011;31720;52.638;9.216;2023-04-24T02:52:32;0.35;;;0.35;;
32032;SDS011;31720;52.638;9.216;2023-04-24T02:55:35;0.30;;;0.30;;
32032;SDS011;31720;52.638;9.216;2023-04-24T02:58:36;0.55;;;0.40;;
32032;SDS011;31720;52.638;9.216;2023-04-24T03:01:37;0.30;;;0.30;;
32032;SDS011;31720;52.638;9.216;2023-04-24T03:04:39;0.30;;;0.30;;
32032;SDS011;31720;52.638;9.216;2023-04-24T03:07:42;1.30;;;0.65;;
32032;SDS011;31720;52.638;9.216;2023-04-24T03:10:45;0.28;;;0.28;;
32032;SDS011;31720;52.638;9.216;2023-04-24T03:13:46;0.20;;;0.20;;
32032;SDS011;31720;52.638;9.216;2023-04-24T03:16:48;0.30;;;0.30;;
32032;SDS011;31720;52.638;9.216;2023-04-24T03:19:50;0.38;;;0.38;;
32032;SDS011;31720;52.638;9.216;2023-04-24T03:22:51;1.02;;;0.45;;
32032;SDS011;31720;52.638;9.216;2023-04-24T03:25:54;0.30;;;0.30;;
32032;SDS011;31720;52.638;9.216;2023-04-24T03:28:55;0.65;;;0.35;;
32032;SDS011;31720;52.638;9.216;2023-04-24T03:31:57;0.40;;;0.40;;
32032;SDS011;31720;52.638;9.216;2023-04-24T03:34:58;0.50;;;0.50;;
32032;SDS011;31720;52.638;9.216;2023-04-24T03:38:00;0.50;;;0.50;;
32032;SDS011;31720;52.638;9.216;2023-04-24T03:41:03;0.22;;;0.22;;
32032;SDS011;31720;52.638;9.216;2023-04-24T03:44:04;1.20;;;0.35;;
32032;SDS011;31720;52.638;9.216;2023-04-24T03:47:05;0.30;;;0.30;;
32032;SDS011;31720;52.638;9.216;2023-04-24T03:50:07;0.65;;;0.50;;
32032;SDS011;31720;52.638;9.216;2023-04-24T03:53:09;0.70;;;0.47;;
32032;SDS011;31720;52.638;9.216;2023-04-24T03:56:12;0.45;;;0.30;;
32032;SDS011;31720;52.638;9.216;2023-04-24T03:59:13;0.70;;;0.60;;
32032;SDS011;31720;52.638;9.216;2023-04-24T04:02:15;1.08;;;0.60;;
32032;SDS011;31720;52.638;9.216;2023-04-24T04:05:16;1.33;;;0.98;;
32032;SDS011;31720;52.638;9.216;2023-04-24T04:08:17;1.35;;;0.90;;
32032;SDS011;31720;52.638;9.216;2023-04-24T04:11:20;0.85;;;0.73;;
32032;SDS011;31720;52.638;9.216;2023-04-24T04:14:21;0.70;;;0.47;;
32032;SDS011;31720;52.638;9.216;2023-04-24T04:17:23;0.60;;;0.50;;
32032;SDS011;31720;52.638;9.216;2023-04-24T04:20:25;0.95;;;0.60;;
32032;SDS011;31720;52.638;9.216;2023-04-24T04:23:26;1.00;;;0.80;;
32032;SDS011;31720;52.638;9.216;2023-04-24T04:26:29;0.82;;;0.65;;
32032;SDS011;31720;52.638;9.216;2023-04-24T04:29:31;2.03;;;0.47;;
32032;SDS011;31720;52.638;9.216;2023-04-24T04:32:34;1.80;;;0.95;;
32032;SDS011;31720;52.638;9.216;2023-04-24T04:35:36;0.90;;;0.70;;
32032;SDS011;31720;52.638;9.216;2023-04-24T04:38:37;2.92;;;0.68;;
32032;SDS011;31720;52.638;9.216;2023-04-24T04:41:41;0.70;;;0.70;;
32032;SDS011;31720;52.638;9.216;2023-04-24T04:44:44;0.70;;;0.70;;
32032;SDS011;31720;52.638;9.216;2023-04-24T04:47:46;2.70;;;0.73;;
32032;SDS011;31720;52.638;9.216;2023-04-24T04:50:47;1.38;;;0.73;;
32032;SDS011;31720;52.638;9.216;2023-04-24T04:53:49;1.38;;;0.80;;
32032;SDS011;31720;52.638;9.216;2023-04-24T04:56:51;0.80;;;0.70;;
32032;SDS011;31720;52.638;9.216;2023-04-24T04:59:53;3.22;;;0.75;;
32032;SDS011;31720;52.638;9.216;2023-04-24T05:02:54;1.38;;;0.85;;
32032;SDS011;31720;52.638;9.216;2023-04-24T05:05:57;1.13;;;0.80;;
32032;SDS011;31720;52.638;9.216;2023-04-24T05:08:58;3.72;;;0.70;;
32032;SDS011;31720;52.638;9.216;2023-04-24T05:12:01;1.83;;;0.90;;
32032;SDS011;31720;52.638;9.216;2023-04-24T05:15:03;1.42;;;0.73;;
32032;SDS011;31720;52.638;9.216;2023-04-24T05:18:05;1.90;;;0.95;;
32032;SDS011;31720;52.638;9.216;2023-04-24T05:21:06;1.30;;;0.80;;
32032;SDS011;31720;52.638;9.216;2023-04-24T05:24:08;1.13;;;0.80;;
32032;SDS011;31720;52.638;9.216;2023-04-24T05:27:11;2.28;;;1.00;;
32032;SDS011;31720;52.638;9.216;2023-04-24T05:30:12;0.98;;;0.85;;
32032;SDS011;31720;52.638;9.216;2023-04-24T05:33:14;1.52;;;0.90;;
32032;SDS011;31720;52.638;9.216;2023-04-24T05:36:15;1.08;;;0.80;;
32032;SDS011;31720;52.638;9.216;2023-04-24T05:39:16;1.48;;;1.10;;
32032;SDS011;31720;52.638;9.216;2023-04-24T05:42:21;1.60;;;1.08;;
32032;SDS011;31720;52.638;9.216;2023-04-24T05:45:22;3.20;;;0.85;;
32032;SDS011;31720;52.638;9.216;2023-04-24T05:48:23;1.30;;;1.00;;
32032;SDS011;31720;52.638;9.216;2023-04-24T05:51:25;3.53;;;1.25;;
32032;SDS011;31720;52.638;9.216;2023-04-24T05:54:26;1.52;;;1.08;;
32032;SDS011;31720;52.638;9.216;2023-04-24T05:57:29;1.90;;;1.13;;
32032;SDS011;31720;52.638;9.216;2023-04-24T06:00:31;2.45;;;1.50;;
32032;SDS011;31720;52.638;9.216;2023-04-24T06:03:32;2.47;;;1.40;;
32032;SDS011;31720;52.638;9.216;2023-04-24T06:06:34;3.17;;;1.33;;
32032;SDS011;31720;52.638;9.216;2023-04-24T06:09:36;3.10;;;1.73;;
32032;SDS011;31720;52.638;9.216;2023-04-24T06:12:38;2.10;;;1.40;;
32032;SDS011;31720;52.638;9.216;2023-04-24T06:15:40;2.58;;;1.75;;
32032;SDS011;31720;52.638;9.216;2023-04-24T06:18:42;3.13;;;1.65;;
32032;SDS011;31720;52.638;9.216;2023-04-24T06:21:43;3.00;;;2.00;;
32032;SDS011;31720;52.638;9.216;2023-04-24T06:24:44;7.68;;;2.88;;
32032;SDS011;31720;52.638;9.216;2023-04-24T06:27:48;4.85;;;2.80;;
32032;SDS011;31720;52.638;9.216;2023-04-24T06:30:50;5.43;;;2.90;;
32032;SDS011;31720;52.638;9.216;2023-04-24T06:33:51;5.68;;;2.90;;
32032;SDS011;31720;52.638;9.216;2023-04-24T06:36:52;6.38;;;2.53;;
32032;SDS011;31720;52.638;9.216;2023-04-24T06:39:55;6.88;;;4.20;;
32032;SDS011;31720;52.638;9.216;2023-04-24T06:42:57;10.77;;;5.00;;
32032;SDS011;31720;52.638;9.216;2023-04-24T06:46:00;7.40;;;4.20;;
32032;SDS011;31720;52.638;9.216;2023-04-24T06:49:03;8.30;;;4.95;;
32032;SDS011;31720;52.638;9.216;2023-04-24T06:52:04;11.98;;;5.10;;
32032;SDS011;31720;52.638;9.216;2023-04-24T06:55:07;11.73;;;5.68;;
32032;SDS011;31720;52.638;9.216;2023-04-24T06:58:10;9.27;;;5.40;;
32032;SDS011;31720;52.638;9.216;2023-04-24T07:01:11;11.63;;;5.38;;
32032;SDS011;31720;52.638;9.216;2023-04-24T07:04:13;9.23;;;5.10;;
32032;SDS011;31720;52.638;9.216;2023-04-24T07:07:15;10.88;;;5.28;;
32032;SDS011;31720;52.638;9.216;2023-04-24T07:10:16;9.52;;;4.97;;
32032;SDS011;31720;52.638;9.216;2023-04-24T07:13:19;10.57;;;5.63;;
32032;SDS011;31720;52.638;9.216;2023-04-24T07:16:21;11.95;;;4.95;;
32032;SDS011;31720;52.638;9.216;2023-04-24T07:19:22;10.23;;;4.85;;
32032;SDS011;31720;52.638;9.216;2023-04-24T07:22:24;8.48;;;4.95;;
32032;SDS011;31720;52.638;9.216;2023-04-24T07:25:25;7.88;;;4.55;;
32032;SDS011;31720;52.638;9.216;2023-04-24T07:28:28;8.68;;;5.18;;
32032;SDS011;31720;52.638;9.216;2023-04-24T07:31:31;11.07;;;5.03;;
32032;SDS011;31720;52.638;9.216;2023-04-24T07:34:32;9.80;;;4.57;;
32032;SDS011;31720;52.638;9.216;2023-04-24T07:37:33;7.75;;;4.72;;
32032;SDS011;31720;52.638;9.216;2023-04-24T07:40:35;10.50;;;4.25;;
32032;SDS011;31720;52.638;9.216;2023-04-24T07:43:38;9.02;;;5.20;;
32032;SDS011;31720;52.638;9.216;2023-04-24T07:46:39;9.45;;;4.78;;
32032;SDS011;31720;52.638;9.216;2023-04-24T07:49:41;9.65;;;4.85;;
32032;SDS011;31720;52.638;9.216;2023-04-24T07:52:42;8.55;;;5.30;;
32032;SDS011;31720;52.638;9.216;2023-04-24T07:55:44;7.47;;;5.13;;
32032;SDS011;31720;52.638;9.216;2023-04-24T07:58:46;9.00;;;5.20;;
32032;SDS011;31720;52.638;9.216;2023-04-24T08:01:48;10.73;;;4.82;;
32032;SDS011;31720;52.638;9.216;2023-04-24T08:04:49;13.23;;;5.38;;
32032;SDS011;31720;52.638;9.216;2023-04-24T08:07:51;10.07;;;5.05;;
32032;SDS011;31720;52.638;9.216;2023-04-24T08:10:52;14.57;;;5.72;;
32032;SDS011;31720;52.638;9.216;2023-04-24T08:13:56;9.70;;;4.63;;
32032;SDS011;31720;52.638;9.216;2023-04-24T08:16:57;10.65;;;4.82;;
32032;SDS011;31720;52.638;9.216;2023-04-24T08:20:00;7.60;;;4.70;;
32032;SDS011;31720;52.638;9.216;2023-04-24T08:23:02;13.02;;;5.38;;
32032;SDS011;31720;52.638;9.216;2023-04-24T08:26:03;9.85;;;4.95;;
32032;SDS011;31720;52.638;9.216;2023-04-24T08:29:08;12.93;;;4.55;;
32032;SDS011;31720;52.638;9.216;2023-04-24T08:32:10;9.20;;;4.32;;
32032;SDS011;31720;52.638;9.216;2023-04-24T08:35:11;9.73;;;4.50;;
32032;SDS011;31720;52.638;9.216;2023-04-24T08:38:12;10.88;;;4.68;;
32032;SDS011;31720;52.638;9.216;2023-04-24T08:41:14;11.95;;;5.28;;
32032;SDS011;31720;52.638;9.216;2023-04-24T08:44:17;10.63;;;4.07;;
32032;SDS011;31720;52.638;9.216;2023-04-24T08:47:20;7.88;;;4.53;;
32032;SDS011;31720;52.638;9.216;2023-04-24T08:50:24;12.40;;;4.93;;
32032;SDS011;31720;52.638;9.216;2023-04-24T08:53:26;8.15;;;4.32;;
32032;SDS011;31720;52.638;9.216;2023-04-24T08:56:27;7.32;;;4.35;;
32032;SDS011;31720;52.638;9.216;2023-04-24T08:59:32;6.70;;;4.10;;
32032;SDS011;31720;52.638;9.216;2023-04-24T09:02:36;8.23;;;4.80;;
32032;SDS011;31720;52.638;9.216;2023-04-24T09:05:40;8.70;;;4.75;;
32032;SDS011;31720;52.638;9.216;2023-04-24T09:08:45;9.15;;;4.35;;
32032;SDS011;31720;52.638;9.216;2023-04-24T09:11:49;15.68;;;4.90;;
32032;SDS011;31720;52.638;9.216;2023-04-24T09:14:52;6.25;;;4.10;;
32032;SDS011;31720;52.638;9.216;2023-04-24T09:17:55;9.00;;;4.88;;
32032;SDS011;31720;52.638;9.216;2023-04-24T09:20:56;10.30;;;3.88;;
32032;SDS011;31720;52.638;9.216;2023-04-24T09:23:58;10.88;;;3.50;;
32032;SDS011;31720;52.638;9.216;2023-04-24T09:27:00;6.93;;;4.13;;
32032;SDS011;31720;52.638;9.216;2023-04-24T09:30:04;10.50;;;3.80;;
32032;SDS011;31720;52.638;9.216;2023-04-24T09:33:10;14.82;;;3.17;;
32032;SDS011;31720;52.638;9.216;2023-04-24T09:36:14;8.27;;;3.67;;
32032;SDS011;31720;52.638;9.216;2023-04-24T09:39:18;7.13;;;3.78;;
32032;SDS011;31720;52.638;9.216;2023-04-24T09:42:20;10.75;;;4.00;;
32032;SDS011;31720;52.638;9.216;2023-04-24T09:45:28;6.32;;;3.55;;
32032;SDS011;31720;52.638;9.216;2023-04-24T09:48:36;4.55;;;3.13;;
32032;SDS011;31720;52.638;9.216;2023-04-24T09:51:38;6.43;;;3.47;;
32032;SDS011;31720;52.638;9.216;2023-04-24T09:54:40;7.25;;;3.22;;
32032;SDS011;31720;52.638;9.216;2023-04-24T09:57:48;5.63;;;3.67;;
32032;SDS011;31720;52.638;9.216;2023-04-24T10:00:55;5.05;;;2.63;;
32032;SDS011;31720;52.638;9.216;2023-04-24T10:03:57;4.07;;;2.70;;
32032;SDS011;31720;52.638;9.216;2023-04-24T10:06:59;6.10;;;2.95;;
32032;SDS011;31720;52.638;9.216;2023-04-24T10:10:01;3.50;;;2.38;;
32032;SDS011;31720;52.638;9.216;2023-04-24T10:13:02;5.72;;;2.80;;
32032;SDS011;31720;52.638;9.216;2023-04-24T10:16:06;2.97;;;1.95;;
32032;SDS011;31720;52.638;9.216;2023-04-24T10:19:09;5.13;;;2.45;;
32032;SDS011;31720;52.638;9.216;2023-04-24T10:22:13;3.53;;;2.20;;
32032;SDS011;31720;52.638;9.216;2023-04-24T10:25:17;4.00;;;2.28;;
32032;SDS011;31720;52.638;9.216;2023-04-24T10:28:20;3.22;;;2.30;;
32032;SDS011;31720;52.638;9.216;2023-04-24T10:31:24;2.97;;;2.08;;
32032;SDS011;31720;52.638;9.216;2023-04-24T10:34:26;2.70;;;2.20;;
32032;SDS011;31720;52.638;9.216;2023-04-24T10:37:29;2.30;;;1.90;;
32032;SDS011;31720;52.638;9.216;2023-04-24T10:40:37;5.75;;;1.60;;
32032;SDS011;31720;52.638;9.216;2023-04-24T10:43:39;3.05;;;1.80;;
32032;SDS011;31720;52.638;9.216;2023-04-24T10:46:43;2.22;;;1.40;;
32032;SDS011;31720;52.638;9.216;2023-04-24T10:49:46;1.95;;;1.60;;
32032;SDS011;31720;52.638;9.216;2023-04-24T10:52:51;4.70;;;1.55;;
32032;SDS011;31720;52.638;9.216;2023-04-24T10:55:57;1.73;;;1.52;;
32032;SDS011;31720;52.638;9.216;2023-04-24T10:59:00;3.20;;;2.03;;
32032;SDS011;31720;52.638;9.216;2023-04-24T11:02:03;2.55;;;1.60;;
32032;SDS011;31720;52.638;9.216;2023-04-24T11:05:09;1.98;;;1.60;;
32032;SDS011;31720;52.638;9.216;2023-04-24T11:08:11;1.60;;;1.40;;
32032;SDS011;31720;52.638;9.216;2023-04-24T11:11:15;2.35;;;1.77;;
32032;SDS011;31720;52.638;9.216;2023-04-24T11:14:17;2.13;;;1.42;;
32032;SDS011;31720;52.638;9.216;2023-04-24T11:17:28;3.45;;;1.40;;
32032;SDS011;31720;52.638;9.216;2023-04-24T11:20:31;1.50;;;1.10;;
32032;SDS011;31720;52.638;9.216;2023-04-24T11:23:35;4.40;;;1.90;;
32032;SDS011;31720;52.638;9.216;2023-04-24T11:26:37;3.85;;;1.75;;
32032;SDS011;31720;52.638;9.216;2023-04-24T11:29:47;1.50;;;1.25;;
32032;SDS011;31720;52.638;9.216;2023-04-24T11:32:51;2.45;;;1.42;;
32032;SDS011;31720;52.638;9.216;2023-04-24T11:35:52;2.55;;;1.27;;
32032;SDS011;31720;52.638;9.216;2023-04-24T11:38:54;1.50;;;1.17;;
32032;SDS011;31720;52.638;9.216;2023-04-24T11:42:01;1.77;;;1.25;;
32032;SDS011;31720;52.638;9.216;2023-04-24T11:45:07;2.55;;;1.38;;
32032;SDS011;31720;52.638;9.216;2023-04-24T11:48:10;2.20;;;1.55;;
32032;SDS011;31720;52.638;9.216;2023-04-24T11:51:12;7.30;;;1.52;;
32032;SDS011;31720;52.638;9.216;2023-04-24T11:54:14;3.28;;;1.83;;
32032;SDS011;31720;52.638;9.216;2023-04-24T11:57:15;2.05;;;1.58;;
32032;SDS011;31720;52.638;9.216;2023-04-24T12:00:18;2.30;;;1.80;;
32032;SDS011;31720;52.638;9.216;2023-04-24T12:03:22;1.58;;;1.40;;
32032;SDS011;31720;52.638;9.216;2023-04-24T12:06:24;1.73;;;1.58;;
32032;SDS011;31720;52.638;9.216;2023-04-24T12:09:25;1.70;;;1.40;;
32032;SDS011;31720;52.638;9.216;2023-04-24T12:12:27;3.72;;;1.35;;
32032;SDS011;31720;52.638;9.216;2023-04-24T12:15:29;1.38;;;1.27;;
32032;SDS011;31720;52.638;9.216;2023-04-24T12:18:32;1.40;;;1.30;;
32032;SDS011;31720;52.638;9.216;2023-04-24T12:21:33;1.90;;;1.63;;
32032;SDS011;31720;52.638;9.216;2023-04-24T12:24:35;1.77;;;1.58;;
32032;SDS011;31720;52.638;9.216;2023-04-24T12:27:36;2.05;;;1.23;;
32032;SDS011;31720;52.638;9.216;2023-04-24T12:30:39;1.58;;;1.30;;
32032;SDS011;31720;52.638;9.216;2023-04-24T12:33:44;1.42;;;1.30;;
32032;SDS011;31720;52.638;9.216;2023-04-24T12:36:45;1.95;;;1.52;;
32032;SDS011;31720;52.638;9.216;2023-04-24T12:40:00;1.98;;;1.40;;
32032;SDS011;31720;52.638;9.216;2023-04-24T12:43:02;1.23;;;1.13;;
32032;SDS011;31720;52.638;9.216;2023-04-24T12:46:14;1.15;;;0.90;;
32032;SDS011;31720;52.638;9.216;2023-04-24T12:49:17;0.82;;;0.82;;
32032;SDS011;31720;52.638;9.216;2023-04-24T12:52:18;1.13;;;1.00;;
32032;SDS011;31720;52.638;9.216;2023-04-24T12:55:20;1.27;;;0.90;;
32032;SDS011;31720;52.638;9.216;2023-04-24T12:58:22;0.70;;;0.70;;
32032;SDS011;31720;52.638;9.216;2023-04-24T13:01:23;0.50;;;0.50;;
32032;SDS011;31720;52.638;9.216;2023-04-24T13:04:26;0.40;;;0.40;;
32032;SDS011;31720;52.638;9.216;2023-04-24T13:07:27;0.88;;;0.38;;
32032;SDS011;31720;52.638;9.216;2023-04-24T13:10:29;0.70;;;0.52;;
32032;SDS011;31720;52.638;9.216;2023-04-24T13:13:30;0.52;;;0.52;;
32032;SDS011;31720;52.638;9.216;2023-04-24T13:16:31;2.90;;;0.93;;
32032;SDS011;31720;52.638;9.216;2023-04-24T13:19:36;1.17;;;1.00;;
32032;SDS011;31720;52.638;9.216;2023-04-24T13:22:38;1.90;;;1.00;;
32032;SDS011;31720;52.638;9.216;2023-04-24T13:25:40;2.47;;;1.33;;
32032;SDS011;31720;52.638;9.216;2023-04-24T13:28:42;2.85;;;1.50;;
32032;SDS011;31720;52.638;9.216;2023-04-24T13:31:43;3.45;;;2.10;;
32032;SDS011;31720;52.638;9.216;2023-04-24T13:34:46;2.72;;;1.52;;
32032;SDS011;31720;52.638;9.216;2023-04-24T13:37:48;3.25;;;1.77;;
32032;SDS011;31720;52.638;9.216;2023-04-24T13:40:49;2.20;;;1.70;;
32032;SDS011;31720;52.638;9.216;2023-04-24T13:43:50;3.03;;;2.08;;
32032;SDS011;31720;52.638;9.216;2023-04-24T13:46:53;2.22;;;1.40;;
32032;SDS011;31720;52.638;9.216;2023-04-24T13:49:58;4.93;;;2.17;;
32032;SDS011;31720;52.638;9.216;2023-04-24T13:52:59;4.20;;;2.35;;
32032;SDS011;31720;52.638;9.216;2023-04-24T13:56:01;5.72;;;2.05;;
32032;SDS011;31720;52.638;9.216;2023-04-24T13:59:02;5.07;;;2.90;;
32032;SDS011;31720;52.638;9.216;2023-04-24T14:02:04;3.28;;;2.35;;
32032;SDS011;31720;52.638;9.216;2023-04-24T14:05:07;4.65;;;2.42;;
32032;SDS011;31720;52.638;9.216;2023-04-24T14:08:10;3.28;;;2.17;;
32032;SDS011;31720;52.638;9.216;2023-04-24T14:11:12;5.57;;;2.20;;
32032;SDS011;31720;52.638;9.216;2023-04-24T14:14:14;5.35;;;2.28;;
32032;SDS011;31720;52.638;9.216;2023-04-24T14:17:15;3.92;;;2.08;;
32032;SDS011;31720;52.638;9.216;2023-04-24T14:20:18;2.42;;;1.83;;
32032;SDS011;31720;52.638;9.216;2023-04-24T14:23:19;4.65;;;2.28;;
32032;SDS011;31720;52.638;9.216;2023-04-24T14:26:21;3.53;;;2.17;;
32032;SDS011;31720;52.638;9.216;2023-04-24T14:29:22;3.55;;;1.75;;
32032;SDS011;31720;52.638;9.216;2023-04-24T14:32:25;3.55;;;1.85;;
32032;SDS011;31720;52.638;9.216;2023-04-24T14:35:29;3.15;;;2.08;;
32032;SDS011;31720;52.638;9.216;2023-04-24T14:38:31;3.20;;;1.70;;
32032;SDS011;31720;52.638;9.216;2023-04-24T14:41:32;5.78;;;2.03;;
32032;SDS011;31720;52.638;9.216;2023-04-24T14:44:35;3.45;;;2.38;;
32032;SDS011;31720;52.638;9.216;2023-04-24T14:47:36;6.60;;;2.53;;
32032;SDS011;31720;52.638;9.216;2023-04-24T14:50:39;3.83;;;2.58;;
32032;SDS011;31720;52.638;9.216;2023-04-24T14:53:41;6.00;;;2.17;;
32032;SDS011;31720;52.638;9.216;2023-04-24T14:56:42;4.88;;;2.20;;
32032;SDS011;31720;52.638;9.216;2023-04-24T14:59:44;4.32;;;1.95;;
32032;SDS011;31720;52.638;9.216;2023-04-24T15:02:45;4.65;;;2.22;;
32032;SDS011;31720;52.638;9.216;2023-04-24T15:05:48;5.40;;;2.22;;
32032;SDS011;31720;52.638;9.216;2023-04-24T15:08:50;10.32;;;2.28;;
32032;SDS011;31720;52.638;9.216;2023-04-24T15:11:51;7.38;;;2.85;;
32032;SDS011;31720;52.638;9.216;2023-04-24T15:14:53;5.72;;;2.65;;
32032;SDS011;31720;52.638;9.216;2023-04-24T15:17:54;5.28;;;2.83;;
32032;SDS011;31720;52.638;9.216;2023-04-24T15:20:57;7.63;;;2.75;;
32032;SDS011;31720;52.638;9.216;2023-04-24T15:23:58;4.43;;;2.47;;
32032;SDS011;31720;52.638;9.216;2023-04-24T15:27:00;6.55;;;2.42;;
32032;SDS011;31720;52.638;9.216;2023-04-24T15:30:03;13.43;;;3.15;;
32032;SDS011;31720;52.638;9.216;2023-04-24T15:33:05;10.13;;;3.28;;
32032;SDS011;31720;52.638;9.216;2023-04-24T15:36:08;7.40;;;2.75;;
32032;SDS011;31720;52.638;9.216;2023-04-24T15:39:09;5.00;;;2.80;;
32032;SDS011;31720;52.638;9.216;2023-04-24T15:42:10;10.43;;;3.38;;
32032;SDS011;31720;52.638;9.216;2023-04-24T15:45:12;13.55;;;4.80;;
32032;SDS011;31720;52.638;9.216;2023-04-24T15:48:13;10.05;;;3.08;;
32032;SDS011;31720;52.638;9.216;2023-04-24T15:51:16;5.80;;;3.15;;
32032;SDS011;31720;52.638;9.216;2023-04-24T15:54:17;6.47;;;2.95;;
32032;SDS011;31720;52.638;9.216;2023-04-24T15:57:20;13.00;;;3.33;;
32032;SDS011;31720;52.638;9.216;2023-04-24T16:00:21;6.13;;;3.03;;
32032;SDS011;31720;52.638;9.216;2023-04-24T16:03:23;6.88;;;3.15;;
32032;SDS011;31720;52.638;9.216;2023-04-24T16:06:26;8.18;;;3.03;;
32032;SDS011;31720;52.638;9.216;2023-04-24T16:09:27;8.85;;;2.88;;
32032;SDS011;31720;52.638;9.216;2023-04-24T16:12:29;5.22;;;2.33;;
32032;SDS011;31720;52.638;9.216;2023-04-24T16:15:31;4.47;;;2.83;;
32032;SDS011;31720;52.638;9.216;2023-04-24T16:18:33;5.00;;;2.50;;
32032;SDS011;31720;52.638;9.216;2023-04-24T16:21:36;6.55;;;2.70;;
32032;SDS011;31720;52.638;9.216;2023-04-24T16:24:37;3.03;;;2.10;;
32032;SDS011;31720;52.638;9.216;2023-04-24T16:27:38;5.60;;;2.30;;
32032;SDS011;31720;52.638;9.216;2023-04-24T16:30:40;7.60;;;2.03;;
32032;SDS011;31720;52.638;9.216;2023-04-24T16:33:41;5.55;;;2.20;;
32032;SDS011;31720;52.638;9.216;2023-04-24T16:36:44;7.70;;;1.50;;
32032;SDS011;31720;52.638;9.216;2023-04-24T16:39:46;3.92;;;1.73;;
32032;SDS011;31720;52.638;9.216;2023-04-24T16:42:47;2.42;;;1.42;;
32032;SDS011;31720;52.638;9.216;2023-04-24T16:45:49;5.85;;;3.00;;
32032;SDS011;31720;52.638;9.216;2023-04-24T16:48:50;2.63;;;1.70;;
32032;SDS011;31720;52.638;9.216;2023-04-24T16:51:53;1.73;;;1.42;;
32032;SDS011;31720;52.638;9.216;2023-04-24T16:54:54;3.83;;;1.80;;
32032;SDS011;31720;52.638;9.216;2023-04-24T16:57:56;2.30;;;1.75;;
32032;SDS011;31720;52.638;9.216;2023-04-24T17:00:57;4.32;;;1.30;;
32032;SDS011;31720;52.638;9.216;2023-04-24T17:03:59;2.17;;;1.20;;
32032;SDS011;31720;52.638;9.216;2023-04-24T17:07:01;1.92;;;1.50;;
32032;SDS011;31720;52.638;9.216;2023-04-24T17:10:03;1.98;;;1.30;;
32032;SDS011;31720;52.638;9.216;2023-04-24T17:13:05;2.47;;;1.60;;
32032;SDS011;31720;52.638;9.216;2023-04-24T17:16:06;6.68;;;1.60;;
32032;SDS011;31720;52.638;9.216;2023-04-24T17:19:07;1.98;;;1.27;;
32032;SDS011;31720;52.638;9.216;2023-04-24T17:22:10;1.38;;;1.10;;
32032;SDS011;31720;52.638;9.216;2023-04-24T17:25:12;1.58;;;1.48;;
32032;SDS011;31720;52.638;9.216;2023-04-24T17:28:14;3.33;;;1.30;;
32032;SDS011;31720;52.638;9.216;2023-04-24T17:31:25;3.15;;;1.23;;
32032;SDS011;31720;52.638;9.216;2023-04-24T17:34:26;1.25;;;1.15;;
32032;SDS011;31720;52.638;9.216;2023-04-24T17:37:29;2.92;;;1.83;;
32032;SDS011;31720;52.638;9.216;2023-04-24T17:40:30;2.78;;;1.48;;
32032;SDS011;31720;52.638;9.216;2023-04-24T17:43:32;1.73;;;1.15;;
32032;SDS011;31720;52.638;9.216;2023-04-24T17:46:33;6.95;;;1.23;;
32032;SDS011;31720;52.638;9.216;2023-04-24T17:49:34;2.45;;;1.42;;
32032;SDS011;31720;52.638;9.216;2023-04-24T17:52:38;4.00;;;1.13;;
32032;SDS011;31720;52.638;9.216;2023-04-24T17:55:40;3.30;;;1.23;;
32032;SDS011;31720;52.638;9.216;2023-04-24T17:58:42;3.15;;;1.48;;
32032;SDS011;31720;52.638;9.216;2023-04-24T18:01:43;5.47;;;1.20;;
32032;SDS011;31720;52.638;9.216;2023-04-24T18:04:45;4.45;;;1.17;;
32032;SDS011;31720;52.638;9.216;2023-04-24T18:07:47;3.05;;;1.30;;
32032;SDS011;31720;52.638;9.216;2023-04-24T18:10:49;5.05;;;1.45;;
32032;SDS011;31720;52.638;9.216;2023-04-24T18:13:50;2.45;;;1.30;;
32032;SDS011;31720;52.638;9.216;2023-04-24T18:16:51;1.10;;;0.90;;